Indianapolis, Indiana
Traffic Map
Current Weather Conditions
Indianapolis, Indiana
Scattered Clouds
Scattered Clouds
19°
Feels Like: 19°
Wind Chill: 19° Ceiling: Unl
Heat Index: 19° Visibility: 10mi
Dew Point: 15° Wind: 7mph
Humidity: 76% Direction: 220° (SW)
Pressure: 29.97in Gusts: 0mph
Raw Report DataKIND 020554Z 22006KT 10SM SCT250 19/15 A2997 RMK AO2 SLP143 T01940150 10261 20189 55001
Traffic Incident Summary
Active as of:
Severity:
Category:
InformationThere was an issue retrieving the traffic information for this location. Please try a different location or try again shortly.
Advertisements
Track Severe Weather on mobile